Flight Track Log - Related Links

Times and Time Zones

All times are in EDT time to prevent confusion due to time zone crossing. See the RSP374 flight status page for this flight to view local times or setup timezone preferences in your user account.

Time Position Orientation Groundspeed Altitude Reporting Facility
EDT Latitude Longitude Course Direction KTS MPH feet Rate Location/Type
Tue 09:04:43 PM 33.9833 -118.4833 251° West 150 173 1,900  Level Southern California TRACON
Tue 09:05:27 PM 33.9703 -118.5294 251° West 204 235 2,700 1,245 Climbing Los Angeles Center
Tue 09:06:29 PM 33.9375 -118.6072 243° Southwest 260 299 4,100 1,548 Climbing Los Angeles Center
Tue 09:07:31 PM 33.9269 -118.7017 262° West 263 303 5,900 1,452 Climbing Los Angeles Center
Tue 09:08:33 PM 33.9186 -118.7814 263° West 270 311 7,100 1,210 Climbing Los Angeles Center
Tue 09:09:35 PM 33.9078 -118.8731 262° West 277 319 8,400 1,366 Climbing Los Angeles Center
Tue 09:10:36 PM 33.9125 -118.9783 273° West 277 319 9,900 1,268 Climbing Los Angeles Center
Tue 09:11:38 PM 33.9658 -119.0481 313° West 280 322 11,000 1,306 Climbing Los Angeles Center
Tue 09:12:40 PM 34.0189 -119.1186 312° West 283 326 12,600 1,951 Climbing Los Angeles Center
Tue 09:13:41 PM 34.0672 -119.1819 313° West 256 295 15,000 2,195 Climbing Los Angeles Center
Tue 09:14:43 PM 34.1147 -119.2336 318° Northwest 232 267 17,100 1,839 Climbing Los Angeles Center
Tue 09:15:45 PM 34.1664 -119.2806 323° Northwest 233 268 18,800 1,548 Climbing Los Angeles Center
Tue 09:16:47 PM 34.2200 -119.3322 321° Northwest 246 283 20,300 1,561 Climbing Los Angeles Center
Tue 09:17:48 PM 34.2892 -119.3950 323° Northwest 261 300 22,000 829 Climbing Los Angeles Center
Tue 09:18:50 PM 34.3533 -119.4553 322° Northwest 294 338 22,000  Level Los Angeles Center
Tue 09:19:52 PM 34.4242 -119.5228 322° Northwest 320 368 22,000  Level Los Angeles Center
Tue 09:20:53 PM 34.4983 -119.5906 323° Northwest 333 383 22,000  Level Los Angeles Center
Tue 09:21:55 PM 34.5561 -119.6458 322° Northwest 333 383 22,000  Level Los Angeles Center
Tue 09:22:57 PM 34.6478 -119.7286 323° Northwest 334 384 22,000  Level Los Angeles Center
Tue 09:24:10 PM 34.7206 -119.7981 322° Northwest 335 386 22,000  Level Los Angeles Center
Tue 09:25:12 PM 34.8086 -119.8811 322° Northwest 335 386 22,000  Level Los Angeles Center
Tue 09:26:14 PM 34.8972 -119.9639 323° Northwest 336 387 22,000  Level Los Angeles Center
Tue 09:27:16 PM 34.9694 -120.0333 322° Northwest 333 383 22,000  Level Los Angeles Center
Tue 09:28:17 PM 35.0428 -120.1028 322° Northwest 334 384 22,000  Level Los Angeles Center
Tue 09:29:19 PM 35.1092 -120.1647 323° Northwest 332 382 22,000  Level Los Angeles Center
Tue 09:30:21 PM 35.1814 -120.2342 322° Northwest 332 382 22,000  Level Los Angeles Center
Tue 09:31:22 PM 35.2686 -120.3172 322° Northwest 332 382 22,000  Level Los Angeles Center
Tue 09:32:24 PM 35.3386 -120.3853 322° Northwest 328 377 22,000  Level Los Angeles Center
Tue 09:33:25 PM 35.4103 -120.4569 321° Northwest 338 389 22,000  Level Los Angeles Center
Tue 09:33:54 PM 35.4400 -120.4861 321° Northwest 338 389 22,000  Level Oakland Center
Tue 09:34:55 PM 35.5264 -120.5675 323° Northwest 333 383 22,000  Level Oakland Center
Tue 09:35:56 PM 35.5978 -120.6361 322° Northwest 328 377 22,000  Level Oakland Center
Tue 09:36:58 PM 35.6700 -120.7061 322° Northwest 329 379 22,000  Level Oakland Center
Tue 09:37:59 PM 35.7419 -120.7761 322° Northwest 329 379 22,000  Level Oakland Center
Tue 09:39:00 PM 35.8144 -120.8469 322° Northwest 332 382 22,000  Level Oakland Center
Tue 09:40:01 PM 35.8875 -120.9169 322° Northwest 333 383 22,000  Level Oakland Center
Tue 09:41:03 PM 35.9592 -120.9881 321° Northwest 332 382 22,000  Level Oakland Center
Tue 09:42:04 PM 36.0319 -121.0561 323° Northwest 331 381 22,000 -197 Level Oakland Center
Tue 09:43:05 PM 36.1089 -121.1189 327° Northwest 331 381 21,600 -934 Descending Oakland Center
Tue 09:44:06 PM 36.1867 -121.1850 326° Northwest 336 387 20,100 -787 Descending Oakland Center
Tue 09:45:07 PM 36.2767 -121.2647 324° Northwest 333 383 20,000 -49 Descending Oakland Center
Tue 09:46:09 PM 36.3517 -121.3278 326° Northwest 328 377 20,000 -98 Level Oakland Center
Tue 09:47:10 PM 36.4258 -121.3919 325° Northwest 326 375 19,800 -344 Descending Oakland Center
Tue 09:48:11 PM 36.5022 -121.4578 325° Northwest 331 381 19,300 -492 Descending Oakland Center
Tue 09:49:12 PM 36.5961 -121.4789 350° North 338 389 18,800 -590 Descending Oakland Center
Tue 09:50:13 PM 36.6917 -121.4981 351° North 346 398 18,100 -1,623 Descending Oakland Center
Tue 09:51:14 PM 36.7836 -121.5158 351° North 338 389 15,500 -2,508 Descending Oakland Center
Tue 09:52:15 PM 36.8708 -121.5319 352° North 323 372 13,000 -2,410 Descending Oakland Center
Tue 09:53:16 PM 36.9569 -121.5492 351° North 316 364 10,600 -2,311 Descending Oakland Center
Tue 09:54:17 PM 37.0350 -121.5639 351° North 292 336 8,300 -1,918 Descending Oakland Center
Tue 09:55:18 PM 37.0933 -121.6342 316° Northwest 279 321 6,700 -1,648 Descending Oakland Center
Tue 09:55:48 PM 37.1333 -121.6667 327° Northwest 266 306 5,800 -1,574 Descending Northern Cal TRACON
Tue 09:56:19 PM 37.1558 -121.7022 308° West 270 311 5,100 -652 Descending Oakland Center
Tue 09:57:20 PM 37.2064 -121.7589 318° Northwest 266 306 4,800 -1,057 Descending Oakland Center
Tue 09:59:49 PM 37.3000 -121.8667 318° Northwest 171 197 1,400 -1,183 Descending Northern Cal TRACON
Tue 10:00:48 PM 37.3333 -121.9000 322° Northwest 112 129 700 -712 Descending Northern Cal TRACON
Tue 10:02:00 PM 37.3500 -121.9167 North  Level FlightAware Approximate
Tue 10:09:00 PM 37.3627 -121.9291 North  Level Estimated
Tue 10:10:00 PM 37.3627 -121.9291 North  Level Estimated

Login

Don't have an account? Register now (free) for customized features, flight alerts, and more!